Browning, IL (62624)

10:04 AM CDT on August 28, 2016 (GMT -0500)
APRSWXNET | | Change Station

Elev 649 ft 40.14 °N, 90.42 °W | Updated 16 minutes ago

Scattered Clouds
Scattered Clouds
80 °F
Feels Like 85 °F
N
0
Wind Variable Wind from SW
Gusts 3.0 mph

Today
High -- | Low -- °F
--% Chance of Precip.
Yesterday
High -- | Low -- °F
Precip. -- in
Pressure 30.17 in
Visibility 10.0 miles
Clouds Scattered Clouds 4700 ft
Heat Index 85 °F
Dew Point 76 °F
Humidity 88%
Rainfall in
Snow Depth Not available.
6:25 AM 7:38 PM
Waning Crescent, 15% visible
METAR KIJX 281455Z AUTO 26004KT 10SM SCT047 28/24 A3017 RMK AO2 LTG DSNT NW T02820238
Pressure 30.17 in
Visibility 10.0 miles
Clouds Scattered Clouds 4700 ft
Heat Index 85 °F
Dew Point 76 °F
Humidity 88%
Rainfall in
Snow Depth Not available.
6:25 AM 7:38 PM
Waning Crescent, 15% visible
METAR KIJX 281455Z AUTO 26004KT 10SM SCT047 28/24 A3017 RMK AO2 LTG DSNT NW T02820238

10-Day Weather Forecast

Almanac

Astronomy

Aug. 28, 2016 Rise Set
Actual Time
Civil Twilight
Nautical Twilight
Astronomical Twilight
Moon
Length of Visible Light
Length of Day
Tomorrow will be .
, % of the Moon is Illuminated

Today's Extremes

State Highs State Lows

Community

WunderPhotos

Upload Photos

1,935,572 photos uploaded!

WunderBlog® & News

Nearby

Air Quality

  Air Quality AQ Index Pollutant
Not available.

Snow Depth

Station Depth Elevation

Earthquake Activity

City Distance Mag. Time & Date
Minimum magnitude displayed is 2.5.

Coastal Water Temperatures

Place Temperature

Stations

Nearby Weather Stations

Station Location Temp. Windchill Dew Point Humidity Wind Precip. Elev Updated Type
                   

Watches & Warnings

There are currently no watches in effect.